createdAt,value
2017-04-16T00:00:08.497Z,1009.37
2017-04-16T00:01:08.478Z,1009.41
2017-04-16T00:02:08.457Z,1009.42
2017-04-16T00:03:08.433Z,1009.45
2017-04-16T00:04:08.412Z,1009.36
2017-04-16T00:05:08.392Z,1009.41
2017-04-16T00:06:08.374Z,1009.41
2017-04-16T00:07:08.354Z,1009.42
2017-04-16T00:08:08.326Z,1009.42
2017-04-16T00:09:08.304Z,1009.45
2017-04-16T00:10:08.283Z,1009.47
2017-04-16T00:11:08.264Z,1009.45
2017-04-16T00:12:08.243Z,1009.45
2017-04-16T00:13:08.225Z,1009.45
2017-04-16T00:14:08.193Z,1009.46
2017-04-16T00:15:08.170Z,1009.45
2017-04-16T00:16:08.153Z,1009.41
2017-04-16T00:17:08.129Z,1009.44
2017-04-16T00:18:08.108Z,1009.42
2017-04-16T00:19:08.084Z,1009.44
2017-04-16T00:20:08.063Z,1009.45
2017-04-16T00:21:08.041Z,1009.39
2017-04-16T00:22:08.023Z,1009.4
2017-04-16T00:23:08.005Z,1009.37
2017-04-16T00:24:07.981Z,1009.45
2017-04-16T00:25:07.952Z,1009.43
2017-04-16T00:26:07.929Z,1009.43
2017-04-16T00:27:07.913Z,1009.4
2017-04-16T00:28:07.886Z,1009.39
2017-04-16T00:29:07.871Z,1009.37
2017-04-16T00:30:07.843Z,1009.38
2017-04-16T00:31:07.827Z,1009.39
2017-04-16T00:32:07.803Z,1009.39
2017-04-16T00:33:07.784Z,1009.39
2017-04-16T00:34:07.755Z,1009.37
2017-04-16T00:35:07.742Z,1009.4
2017-04-16T00:36:07.713Z,1009.42
2017-04-16T00:37:07.695Z,1009.37
2017-04-16T00:38:07.673Z,1009.39
2017-04-16T00:39:07.653Z,1009.43
2017-04-16T00:40:07.632Z,1009.43
2017-04-16T00:41:07.607Z,1009.41
2017-04-16T00:42:07.583Z,1009.46
2017-04-16T00:43:07.563Z,1009.47
2017-04-16T00:44:07.539Z,1009.44
2017-04-16T00:45:07.524Z,1009.46
2017-04-16T00:46:07.504Z,1009.54
2017-04-16T00:47:07.474Z,1009.52
2017-04-16T00:48:07.454Z,1009.48
2017-04-16T00:49:07.434Z,1009.53
2017-04-16T00:50:07.410Z,1009.49
2017-04-16T00:51:07.390Z,1009.54
2017-04-16T00:52:07.366Z,1009.54
2017-04-16T00:53:07.344Z,1009.53
2017-04-16T00:54:07.320Z,1009.53
2017-04-16T00:55:07.302Z,1009.51
2017-04-16T00:56:07.279Z,1009.51
2017-04-16T00:57:07.260Z,1009.47
2017-04-16T00:58:07.240Z,1009.5
2017-04-16T00:59:07.213Z,1009.52
2017-04-16T01:00:07.193Z,1009.47
2017-04-16T01:01:07.169Z,1009.49
2017-04-16T01:02:07.143Z,1009.46
2017-04-16T01:03:07.123Z,1009.48
2017-04-16T01:04:07.104Z,1009.49
2017-04-16T01:05:07.087Z,1009.51
2017-04-16T01:06:07.060Z,1009.47
2017-04-16T01:07:07.036Z,1009.45
2017-04-16T01:08:07.014Z,1009.47
2017-04-16T01:09:06.995Z,1009.48
2017-04-16T01:10:06.970Z,1009.47
2017-04-16T01:11:06.952Z,1009.49
2017-04-16T01:12:06.930Z,1009.47
2017-04-16T01:13:06.904Z,1009.5
2017-04-16T01:14:06.882Z,1009.48
2017-04-16T01:15:06.860Z,1009.46
2017-04-16T01:16:06.843Z,1009.44
2017-04-16T01:17:06.819Z,1009.45
2017-04-16T01:18:06.793Z,1009.48
2017-04-16T01:19:06.773Z,1009.48
2017-04-16T01:20:06.855Z,1009.49
2017-04-16T01:21:06.735Z,1009.51
2017-04-16T01:22:06.710Z,1009.47
2017-04-16T01:23:06.686Z,1009.49
2017-04-16T01:24:06.664Z,1009.5
2017-04-16T01:25:06.641Z,1009.48
2017-04-16T01:26:06.622Z,1009.46
2017-04-16T01:27:06.598Z,1009.48
2017-04-16T01:28:06.572Z,1009.47
2017-04-16T01:29:06.554Z,1009.46
2017-04-16T01:30:06.535Z,1009.47
2017-04-16T01:31:06.509Z,1009.48
2017-04-16T01:32:06.488Z,1009.52
2017-04-16T01:33:06.468Z,1009.5
2017-04-16T01:34:06.447Z,1009.52
2017-04-16T01:35:06.574Z,1009.48
2017-04-16T01:36:06.410Z,1009.5
2017-04-16T01:37:06.383Z,1009.46
2017-04-16T01:38:06.363Z,1009.48
2017-04-16T01:39:06.401Z,1009.54
2017-04-16T01:40:06.315Z,1009.48
2017-04-16T01:41:06.306Z,1009.46
2017-04-16T01:42:06.270Z,1009.47
2017-04-16T01:43:06.250Z,1009.43
2017-04-16T01:44:06.233Z,1009.47
2017-04-16T01:45:06.205Z,1009.49
2017-04-16T01:46:06.179Z,1009.46
2017-04-16T01:47:06.163Z,1009.47
2017-04-16T01:48:06.144Z,1009.45
2017-04-16T01:49:06.205Z,1009.4
2017-04-16T01:50:06.094Z,1009.43
2017-04-16T01:51:06.086Z,1009.45
2017-04-16T01:52:06.056Z,1009.41
2017-04-16T01:53:06.134Z,1009.37
2017-04-16T01:54:06.016Z,1009.41
2017-04-16T01:55:05.984Z,1009.4
2017-04-16T01:56:05.955Z,1009.35
2017-04-16T01:57:06.016Z,1009.37
2017-04-16T01:58:05.913Z,1009.38
2017-04-16T01:59:05.900Z,1009.36
2017-04-16T02:00:05.874Z,1009.36
2017-04-16T02:01:05.848Z,1009.39
2017-04-16T02:02:05.824Z,1009.37
2017-04-16T02:03:05.805Z,1009.38
2017-04-16T02:04:05.782Z,1009.39
2017-04-16T02:05:05.762Z,1009.38
2017-04-16T02:06:05.737Z,1009.41
2017-04-16T02:07:05.712Z,1009.37
2017-04-16T02:08:05.692Z,1009.37
2017-04-16T02:09:05.671Z,1009.43
2017-04-16T02:10:05.654Z,1009.4
2017-04-16T02:11:05.633Z,1009.44
2017-04-16T02:12:05.624Z,1009.4
2017-04-16T02:13:05.583Z,1009.38
2017-04-16T02:14:05.564Z,1009.4
2017-04-16T02:15:05.535Z,1009.38
2017-04-16T02:16:05.513Z,1009.41
2017-04-16T02:17:05.494Z,1009.42
2017-04-16T02:18:05.470Z,1009.39
2017-04-16T02:19:05.448Z,1009.41
2017-04-16T02:20:05.423Z,1009.37
2017-04-16T02:21:05.404Z,1009.36
2017-04-16T02:22:05.379Z,1009.38
2017-04-16T02:23:05.363Z,1009.39
2017-04-16T02:24:05.334Z,1009.39
2017-04-16T02:25:05.317Z,1009.42
2017-04-16T02:26:05.292Z,1009.37
2017-04-16T02:27:05.273Z,1009.38
2017-04-16T02:28:05.251Z,1009.4
2017-04-16T02:29:05.236Z,1009.41
2017-04-16T02:30:05.204Z,1009.45
2017-04-16T02:31:05.184Z,1009.45
2017-04-16T02:32:05.160Z,1009.43
2017-04-16T02:33:05.139Z,1009.41
2017-04-16T02:34:05.124Z,1009.48
2017-04-16T02:35:05.093Z,1009.48
2017-04-16T02:36:05.067Z,1009.42
2017-04-16T02:37:05.044Z,1009.45
2017-04-16T02:38:05.026Z,1009.44
2017-04-16T02:39:05.002Z,1009.47
2017-04-16T02:40:04.984Z,1009.5
2017-04-16T02:41:04.958Z,1009.48
2017-04-16T02:42:04.933Z,1009.48
2017-04-16T02:43:04.913Z,1009.39
2017-04-16T02:44:04.895Z,1009.43
2017-04-16T02:45:04.864Z,1009.44
2017-04-16T02:46:04.844Z,1009.44
2017-04-16T02:47:04.824Z,1009.42
2017-04-16T02:48:04.803Z,1009.45
2017-04-16T02:49:04.777Z,1009.42
2017-04-16T02:50:04.762Z,1009.4
2017-04-16T02:51:04.727Z,1009.42
2017-04-16T02:52:04.710Z,1009.39
2017-04-16T02:53:04.683Z,1009.41
2017-04-16T02:54:04.662Z,1009.34
2017-04-16T02:55:04.642Z,1009.35
2017-04-16T02:56:04.615Z,1009.39
2017-04-16T02:57:04.594Z,1009.38
2017-04-16T02:58:04.584Z,1009.37
2017-04-16T02:59:04.553Z,1009.36
2017-04-16T03:00:04.629Z,1009.34
2017-04-16T03:01:04.508Z,1009.35
2017-04-16T03:02:04.482Z,1009.33
2017-04-16T03:03:04.463Z,1009.37
2017-04-16T03:04:04.442Z,1009.38
2017-04-16T03:05:04.524Z,1009.38
2017-04-16T03:06:04.395Z,1009.38
2017-04-16T03:07:04.369Z,1009.34
2017-04-16T03:08:04.344Z,1009.33
2017-04-16T03:09:04.333Z,1009.34
2017-04-16T03:10:04.302Z,1009.33
2017-04-16T03:11:04.285Z,1009.36
2017-04-16T03:12:04.255Z,1009.37
2017-04-16T03:13:04.233Z,1009.39
2017-04-16T03:14:04.210Z,1009.39
2017-04-16T03:15:04.288Z,1009.39
2017-04-16T03:16:04.163Z,1009.41
2017-04-16T03:17:04.142Z,1009.41
2017-04-16T03:18:04.122Z,1009.4
2017-04-16T03:19:04.099Z,1009.44
2017-04-16T03:20:04.075Z,1009.47
2017-04-16T03:21:04.050Z,1009.45
2017-04-16T03:22:04.032Z,1009.49
2017-04-16T03:23:04.017Z,1009.43
2017-04-16T03:24:03.991Z,1009.47
2017-04-16T03:25:03.963Z,1009.45
2017-04-16T03:26:03.940Z,1009.46
2017-04-16T03:27:03.925Z,1009.45
2017-04-16T03:28:03.895Z,1009.5
2017-04-16T03:29:03.874Z,1009.46
2017-04-16T03:30:03.904Z,1009.52
2017-04-16T03:31:03.826Z,1009.54
2017-04-16T03:32:03.853Z,1009.54
2017-04-16T03:33:03.783Z,1009.55
2017-04-16T03:34:03.765Z,1009.54
2017-04-16T03:35:03.741Z,1009.54
2017-04-16T03:36:03.714Z,1009.55
2017-04-16T03:37:03.689Z,1009.52
2017-04-16T03:38:03.668Z,1009.53
2017-04-16T03:39:03.655Z,1009.54
2017-04-16T03:40:03.626Z,1009.59
2017-04-16T03:41:03.606Z,1009.57
2017-04-16T03:42:03.576Z,1009.58
2017-04-16T03:43:03.556Z,1009.56
2017-04-16T03:44:03.536Z,1009.6
2017-04-16T03:45:03.512Z,1009.61
2017-04-16T03:46:03.490Z,1009.6
2017-04-16T03:47:03.470Z,1009.6
2017-04-16T03:48:03.445Z,1009.6
2017-04-16T03:49:03.424Z,1009.62
2017-04-16T03:50:03.395Z,1009.64
2017-04-16T03:51:03.374Z,1009.63
2017-04-16T03:52:03.352Z,1009.68
2017-04-16T03:53:03.339Z,1009.67
2017-04-16T03:54:03.307Z,1009.65
2017-04-16T03:55:03.384Z,1009.63
2017-04-16T03:56:03.260Z,1009.64
2017-04-16T03:57:03.245Z,1009.63
2017-04-16T03:58:03.223Z,1009.65
2017-04-16T03:59:03.195Z,1009.63
2017-04-16T04:00:03.272Z,1009.68
2017-04-16T04:01:03.148Z,1009.67
2017-04-16T04:02:03.122Z,1009.67
2017-04-16T04:03:03.101Z,1009.64
2017-04-16T04:04:03.082Z,1009.65
2017-04-16T04:05:03.055Z,1009.65
2017-04-16T04:06:03.033Z,1009.61
2017-04-16T04:07:03.014Z,1009.65
2017-04-16T04:08:02.993Z,1009.68
2017-04-16T04:09:02.971Z,1009.66
2017-04-16T04:10:02.944Z,1009.68
2017-04-16T04:11:02.922Z,1009.68
2017-04-16T04:12:02.907Z,1009.64
2017-04-16T04:13:02.874Z,1009.67
2017-04-16T04:14:02.853Z,1009.66
2017-04-16T04:15:02.838Z,1009.69
2017-04-16T04:16:02.805Z,1009.69
2017-04-16T04:17:02.786Z,1009.69
2017-04-16T04:18:02.763Z,1009.69
2017-04-16T04:19:02.743Z,1009.7
2017-04-16T04:20:02.736Z,1009.72
2017-04-16T04:21:02.693Z,1009.76
2017-04-16T04:22:02.669Z,1009.75
2017-04-16T04:23:02.653Z,1009.76
2017-04-16T04:24:02.643Z,1009.78
2017-04-16T04:25:02.603Z,1009.75
2017-04-16T04:26:02.603Z,1009.79
2017-04-16T04:27:02.557Z,1009.81
2017-04-16T04:28:02.571Z,1009.86
2017-04-16T04:29:02.513Z,1009.81
2017-04-16T04:30:02.593Z,1009.86
2017-04-16T04:31:02.469Z,1009.87
2017-04-16T04:32:02.446Z,1009.89
2017-04-16T04:33:02.423Z,1009.89
2017-04-16T04:34:02.397Z,1009.92
2017-04-16T04:35:02.385Z,1009.91
2017-04-16T04:36:02.354Z,1009.92
2017-04-16T04:37:02.334Z,1009.95
2017-04-16T04:38:02.313Z,1009.96
2017-04-16T04:39:02.283Z,1009.96
2017-04-16T04:40:02.262Z,1009.99
2017-04-16T04:41:02.244Z,1009.97
2017-04-16T04:42:02.220Z,1009.98
2017-04-16T04:43:02.198Z,1010
2017-04-16T04:44:02.173Z,1009.99
2017-04-16T04:45:02.153Z,1010.01
2017-04-16T04:46:02.127Z,1010
2017-04-16T04:47:02.104Z,1010
2017-04-16T04:48:02.083Z,1010.04
2017-04-16T04:49:02.063Z,1010
2017-04-16T04:50:02.042Z,1010.02
2017-04-16T04:51:02.015Z,1010.04
2017-04-16T04:52:01.995Z,1010.02
2017-04-16T04:53:01.968Z,1010.05
2017-04-16T04:54:01.946Z,1010.04
2017-04-16T04:55:01.923Z,1010.03
2017-04-16T04:56:01.899Z,1010.02
2017-04-16T04:57:01.883Z,1010.05
2017-04-16T04:58:01.860Z,1010.06
2017-04-16T04:59:01.838Z,1010.1
2017-04-16T05:00:01.810Z,1010.09
2017-04-16T05:01:01.788Z,1010.09
2017-04-16T05:02:01.765Z,1010.07
2017-04-16T05:03:01.743Z,1010.11
2017-04-16T05:04:01.724Z,1010.13
2017-04-16T05:05:01.705Z,1010.08
2017-04-16T05:06:01.679Z,1010.11
2017-04-16T05:07:01.652Z,1010.12
2017-04-16T05:08:01.630Z,1010.09
2017-04-16T05:09:01.606Z,1010.12
2017-04-16T05:10:01.592Z,1010.14
2017-04-16T05:11:01.565Z,1010.09
2017-04-16T05:12:01.542Z,1010.13
2017-04-16T05:13:01.521Z,1010.12
2017-04-16T05:14:01.496Z,1010.13
2017-04-16T05:15:01.473Z,1010.11
2017-04-16T05:16:01.448Z,1010.14
2017-04-16T05:17:01.433Z,1010.21
2017-04-16T05:18:01.410Z,1010.17
2017-04-16T05:19:01.382Z,1010.19
2017-04-16T05:20:01.362Z,1010.2
2017-04-16T05:21:01.336Z,1010.22
2017-04-16T05:22:01.314Z,1010.21
2017-04-16T05:23:01.291Z,1010.22
2017-04-16T05:24:01.273Z,1010.22
2017-04-16T05:25:01.252Z,1010.22
2017-04-16T05:26:01.229Z,1010.22
2017-04-16T05:27:01.202Z,1010.24
2017-04-16T05:28:01.179Z,1010.23
2017-04-16T05:29:01.158Z,1010.23
2017-04-16T05:30:01.135Z,1010.24
2017-04-16T05:31:01.113Z,1010.27
2017-04-16T05:32:01.092Z,1010.27
2017-04-16T05:33:01.069Z,1010.27
2017-04-16T05:34:01.051Z,1010.33
2017-04-16T05:35:01.122Z,1010.27
2017-04-16T05:36:01.003Z,1010.3
2017-04-16T05:37:00.982Z,1010.33
2017-04-16T05:38:00.962Z,1010.28
2017-04-16T05:39:00.940Z,1010.34
2017-04-16T05:40:00.910Z,1010.33
2017-04-16T05:41:00.891Z,1010.29
2017-04-16T05:42:00.866Z,1010.31
2017-04-16T05:43:00.849Z,1010.3
2017-04-16T05:44:00.823Z,1010.35
2017-04-16T05:45:00.804Z,1010.32
2017-04-16T05:46:00.780Z,1010.34
2017-04-16T05:47:00.761Z,1010.36
2017-04-16T05:48:00.741Z,1010.35
2017-04-16T05:49:00.711Z,1010.37
2017-04-16T05:50:00.690Z,1010.37
2017-04-16T05:51:00.673Z,1010.4
2017-04-16T05:52:00.652Z,1010.39
2017-04-16T05:53:00.622Z,1010.43
2017-04-16T05:54:00.604Z,1010.42
2017-04-16T05:55:00.631Z,1010.43
2017-04-16T05:56:00.554Z,1010.45
2017-04-16T05:57:00.542Z,1010.44
2017-04-16T05:58:00.512Z,1010.44
2017-04-16T05:59:00.545Z,1010.42
2017-04-16T06:00:00.468Z,1010.48
2017-04-16T06:01:00.452Z,1010.44
2017-04-16T06:02:00.433Z,1010.47
2017-04-16T06:03:00.403Z,1010.49
2017-04-16T06:04:00.382Z,1010.48
2017-04-16T06:05:00.511Z,1010.52
2017-04-16T06:06:00.341Z,1010.51
2017-04-16T06:07:00.372Z,1010.53
2017-04-16T06:08:00.300Z,1010.53
2017-04-16T06:09:00.325Z,1010.54
2017-04-16T06:10:00.349Z,1010.54
2017-04-16T06:11:00.232Z,1010.57
2017-04-16T06:12:00.211Z,1010.58
2017-04-16T06:13:00.227Z,1010.58
2017-04-16T06:14:00.170Z,1010.59
2017-04-16T06:15:00.142Z,1010.64
2017-04-16T06:16:00.121Z,1010.65
2017-04-16T06:17:00.104Z,1010.66
2017-04-16T06:18:00.083Z,1010.67
2017-04-16T06:19:00.062Z,1010.64
2017-04-16T06:20:00.033Z,1010.64
2017-04-16T06:21:00.064Z,1010.67
2017-04-16T06:21:59.994Z,1010.64
2017-04-16T06:23:00.024Z,1010.6
2017-04-16T06:23:59.951Z,1010.63
2017-04-16T06:24:59.985Z,1010.71
2017-04-16T06:25:59.915Z,1010.66
2017-04-16T06:26:59.894Z,1010.63
2017-04-16T06:27:59.866Z,1010.69
2017-04-16T06:28:59.940Z,1010.69
2017-04-16T06:29:59.823Z,1010.67
2017-04-16T06:30:59.802Z,1010.7
2017-04-16T06:31:59.784Z,1010.69
2017-04-16T06:32:59.807Z,1010.77
2017-04-16T06:33:59.737Z,1010.75
2017-04-16T06:34:59.759Z,1010.71
2017-04-16T06:35:59.704Z,1010.67
2017-04-16T06:36:59.677Z,1010.66
2017-04-16T06:37:59.653Z,1010.67
2017-04-16T06:38:59.631Z,1010.76
2017-04-16T06:39:59.616Z,1010.74
2017-04-16T06:40:59.593Z,1010.74
2017-04-16T06:41:59.581Z,1010.69
2017-04-16T06:42:59.562Z,1010.67
2017-04-16T06:43:59.530Z,1010.77
2017-04-16T06:44:59.512Z,1010.81
2017-04-16T06:45:59.488Z,1010.89
2017-04-16T06:46:59.471Z,1010.98
2017-04-16T06:47:59.453Z,1011.15
2017-04-16T06:48:59.432Z,1011.43
2017-04-16T06:49:59.412Z,1011.57
2017-04-16T06:50:59.392Z,1011.72
2017-04-16T06:51:59.371Z,1011.74
2017-04-16T06:52:59.350Z,1011.68
2017-04-16T06:53:59.333Z,1011.43
2017-04-16T06:54:59.312Z,1011.22
2017-04-16T06:55:59.297Z,1011.18
2017-04-16T06:56:59.281Z,1011.24
2017-04-16T06:57:59.262Z,1011.1
2017-04-16T06:58:59.252Z,1011.08
2017-04-16T06:59:59.226Z,1011.07
2017-04-16T07:00:59.208Z,1010.99
2017-04-16T07:01:59.195Z,1011.03
2017-04-16T07:02:59.180Z,1011.05
2017-04-16T07:03:59.174Z,1011.09
2017-04-16T07:04:59.152Z,1011
2017-04-16T07:05:59.133Z,1011.05
2017-04-16T07:06:59.122Z,1011.02
2017-04-16T07:07:59.109Z,1011.07
2017-04-16T07:08:59.094Z,1011.02
2017-04-16T07:09:59.081Z,1011.08
2017-04-16T07:10:59.054Z,1011.12
2017-04-16T07:11:59.042Z,1011.14
2017-04-16T07:12:59.030Z,1011.17
2017-04-16T07:13:59.015Z,1011.13
2017-04-16T07:14:59.001Z,1011.16
2017-04-16T07:15:58.983Z,1011.15
2017-04-16T07:16:58.971Z,1011.18
2017-04-16T07:17:58.962Z,1011.06
2017-04-16T07:18:58.944Z,1011.05
2017-04-16T07:19:58.927Z,1011.05
2017-04-16T07:20:58.912Z,1011.18
2017-04-16T07:21:58.898Z,1011.18
2017-04-16T07:22:58.888Z,1011.23
2017-04-16T07:23:58.873Z,1011.21
2017-04-16T07:24:58.858Z,1011.12
2017-04-16T07:25:58.853Z,1011.14
2017-04-16T07:26:58.829Z,1011.24
2017-04-16T07:27:58.816Z,1011.35
2017-04-16T07:28:58.812Z,1011.3
2017-04-16T07:29:58.795Z,1011.22
2017-04-16T07:30:58.784Z,1011.12
2017-04-16T07:31:58.763Z,1011.18
2017-04-16T07:32:58.753Z,1011.24
2017-04-16T07:33:58.741Z,1011.25
2017-04-16T07:34:58.726Z,1011.25
2017-04-16T07:35:58.711Z,1011.31
2017-04-16T07:36:58.700Z,1011.26
2017-04-16T07:37:58.692Z,1011.3
2017-04-16T07:38:58.672Z,1011.22
2017-04-16T07:39:58.663Z,1011.21
2017-04-16T07:40:58.657Z,1011.16
2017-04-16T07:41:58.640Z,1011.14
2017-04-16T07:42:58.627Z,1011.12
2017-04-16T07:43:58.611Z,1011.14
2017-04-16T07:44:58.602Z,1011.08
2017-04-16T07:45:58.585Z,1011.1
2017-04-16T07:46:58.574Z,1011.13
2017-04-16T07:47:58.561Z,1011.11
2017-04-16T07:48:58.544Z,1011.09
2017-04-16T07:49:58.531Z,1011.1
2017-04-16T07:50:58.518Z,1011.21
2017-04-16T07:51:58.502Z,1011.15
2017-04-16T07:52:58.492Z,1011.13
2017-04-16T07:53:58.470Z,1011.15
2017-04-16T07:54:58.464Z,1011.15
2017-04-16T07:55:58.442Z,1011.16
2017-04-16T07:56:58.427Z,1011.1
2017-04-16T07:57:58.412Z,1011.1
2017-04-16T07:58:58.395Z,1011.19
2017-04-16T07:59:58.379Z,1011.14
2017-04-16T08:00:58.369Z,1011.16
2017-04-16T08:01:58.344Z,1011.14
2017-04-16T08:02:58.328Z,1011.22
2017-04-16T08:03:58.313Z,1011.23
2017-04-16T08:04:58.298Z,1011.24
2017-04-16T08:05:58.284Z,1011.21
2017-04-16T08:06:58.263Z,1011.3
2017-04-16T08:07:58.252Z,1011.34
2017-04-16T08:08:58.231Z,1011.28
2017-04-16T08:09:58.220Z,1011.28
2017-04-16T08:10:58.201Z,1011.23
2017-04-16T08:11:58.192Z,1011.2
2017-04-16T08:12:58.172Z,1011.32
2017-04-16T08:13:58.162Z,1011.32
2017-04-16T08:14:58.143Z,1011.28
2017-04-16T08:15:58.131Z,1011.25
2017-04-16T08:16:58.111Z,1011.36
2017-04-16T08:17:58.105Z,1011.4
2017-04-16T08:18:58.092Z,1011.27
2017-04-16T08:19:58.074Z,1011.27
2017-04-16T08:20:58.062Z,1011.27
2017-04-16T08:21:58.045Z,1011.28
2017-04-16T08:22:58.034Z,1011.36
2017-04-16T08:23:58.020Z,1011.38
2017-04-16T08:24:58.010Z,1011.36
2017-04-16T08:25:58.077Z,1011.35
2017-04-16T08:26:57.988Z,1011.3
2017-04-16T08:27:58.030Z,1011.41
2017-04-16T08:28:57.956Z,1011.43
2017-04-16T08:29:58.052Z,1011.37
2017-04-16T08:30:57.940Z,1011.33
2017-04-16T08:31:57.929Z,1011.32
2017-04-16T08:32:57.913Z,1011.32
2017-04-16T08:33:57.903Z,1011.32
2017-04-16T08:34:57.884Z,1011.36
2017-04-16T08:35:57.870Z,1011.4
2017-04-16T08:36:57.862Z,1011.47
2017-04-16T08:37:57.904Z,1011.27
2017-04-16T08:38:57.838Z,1011.26
2017-04-16T08:39:57.873Z,1011.33
2017-04-16T08:40:57.809Z,1011.36
2017-04-16T08:41:57.796Z,1011.41
2017-04-16T08:42:57.781Z,1011.34
2017-04-16T08:43:57.778Z,1011.44
2017-04-16T08:44:57.758Z,1011.44
2017-04-16T08:45:57.745Z,1011.41
2017-04-16T08:46:57.736Z,1011.41
2017-04-16T08:47:57.719Z,1011.59
2017-04-16T08:48:57.703Z,1011.46
2017-04-16T08:49:57.697Z,1011.58
2017-04-16T08:50:57.676Z,1011.41
2017-04-16T08:51:57.674Z,1011.53
2017-04-16T08:52:57.663Z,1011.5
2017-04-16T08:53:57.645Z,1011.41
2017-04-16T08:54:57.636Z,1011.6
2017-04-16T08:55:57.625Z,1011.62
2017-04-16T08:56:57.613Z,1011.63
2017-04-16T08:57:57.613Z,1011.5
2017-04-16T08:58:57.595Z,1011.48
2017-04-16T08:59:57.582Z,1011.56
2017-04-16T09:00:57.572Z,1011.57
2017-04-16T09:01:57.566Z,1011.46
2017-04-16T09:02:57.576Z,1011.53
2017-04-16T09:03:57.550Z,1011.46
2017-04-16T09:04:57.541Z,1011.51
2017-04-16T09:05:57.528Z,1011.41
2017-04-16T09:06:57.523Z,1011.41
2017-04-16T09:07:57.511Z,1011.49
2017-04-16T09:08:57.511Z,1011.39
2017-04-16T09:09:57.492Z,1011.43
2017-04-16T09:10:57.486Z,1011.37
2017-04-16T09:11:57.472Z,1011.36
2017-04-16T09:12:57.462Z,1011.35
2017-04-16T09:13:57.451Z,1011.4
2017-04-16T09:14:57.442Z,1011.3
2017-04-16T09:15:57.435Z,1011.36
2017-04-16T09:16:57.424Z,1011.39
2017-04-16T09:17:57.408Z,1011.35
2017-04-16T09:18:57.403Z,1011.36
2017-04-16T09:19:57.392Z,1011.37
2017-04-16T09:20:57.382Z,1011.34
2017-04-16T09:21:57.373Z,1011.38
2017-04-16T09:22:57.362Z,1011.32
2017-04-16T09:23:57.345Z,1011.29
2017-04-16T09:24:57.335Z,1011.4
2017-04-16T09:25:57.334Z,1011.29
2017-04-16T09:26:57.323Z,1011.32
2017-04-16T09:27:57.304Z,1011.32
2017-04-16T09:28:57.298Z,1011.4
2017-04-16T09:29:57.290Z,1011.41
2017-04-16T09:30:57.275Z,1011.42
2017-04-16T09:31:57.262Z,1011.47
2017-04-16T09:32:57.254Z,1011.45
2017-04-16T09:33:57.238Z,1011.47
2017-04-16T09:34:57.244Z,1011.42
2017-04-16T09:35:57.222Z,1011.42
2017-04-16T09:36:57.213Z,1011.33
2017-04-16T09:37:57.212Z,1011.4
2017-04-16T09:38:57.193Z,1011.3
2017-04-16T09:39:57.185Z,1011.35
2017-04-16T09:40:57.173Z,1011.4
2017-04-16T09:41:57.163Z,1011.34
2017-04-16T09:42:57.156Z,1011.4
2017-04-16T09:43:57.147Z,1011.31
2017-04-16T09:44:57.143Z,1011.45
2017-04-16T09:45:57.127Z,1011.32
2017-04-16T09:46:57.118Z,1011.41
2017-04-16T09:47:57.111Z,1011.38
2017-04-16T09:48:57.103Z,1011.49
2017-04-16T09:49:57.094Z,1011.43
2017-04-16T09:50:57.089Z,1011.44
2017-04-16T09:51:57.074Z,1011.37
2017-04-16T09:52:57.072Z,1011.36
2017-04-16T09:53:57.057Z,1011.36
2017-04-16T09:54:57.052Z,1011.35
2017-04-16T09:55:57.040Z,1011.35
2017-04-16T09:56:57.030Z,1011.33
2017-04-16T09:57:57.018Z,1011.33
2017-04-16T09:58:57.011Z,1011.36
2017-04-16T09:59:56.998Z,1011.33
2017-04-16T10:00:56.986Z,1011.39
2017-04-16T10:01:56.975Z,1011.3
2017-04-16T10:02:56.962Z,1011.34
2017-04-16T10:03:56.957Z,1011.34
2017-04-16T10:04:56.943Z,1011.34
2017-04-16T10:05:56.931Z,1011.32
2017-04-16T10:06:56.916Z,1011.37
2017-04-16T10:07:56.910Z,1011.34
2017-04-16T10:08:56.892Z,1011.3
2017-04-16T10:09:56.881Z,1011.28
2017-04-16T10:10:56.872Z,1011.26
2017-04-16T10:11:56.865Z,1011.27
2017-04-16T10:12:56.846Z,1011.3
2017-04-16T10:13:56.833Z,1011.3
2017-04-16T10:14:56.824Z,1011.28
2017-04-16T10:15:56.810Z,1011.23
2017-04-16T10:16:56.800Z,1011.22
2017-04-16T10:17:56.786Z,1011.25
2017-04-16T10:18:56.775Z,1011.23
2017-04-16T10:19:56.760Z,1011.23
2017-04-16T10:20:56.745Z,1011.22
2017-04-16T10:21:56.732Z,1011.24
2017-04-16T10:22:56.720Z,1011.2
2017-04-16T10:23:56.765Z,1011.21
2017-04-16T10:24:56.693Z,1011.21
2017-04-16T10:25:56.684Z,1011.2
2017-04-16T10:26:56.665Z,1011.17
2017-04-16T10:27:56.683Z,1011.24
2017-04-16T10:28:56.641Z,1011.24
2017-04-16T10:29:56.627Z,1011.16
2017-04-16T10:30:56.615Z,1011.18
2017-04-16T10:31:56.603Z,1011.16
2017-04-16T10:32:56.582Z,1011.17
2017-04-16T10:33:56.570Z,1011.17
2017-04-16T10:34:56.557Z,1011.17
2017-04-16T10:35:56.610Z,1011.15
2017-04-16T10:36:56.533Z,1011.22
2017-04-16T10:37:56.514Z,1011.11
2017-04-16T10:38:56.501Z,1011.15
2017-04-16T10:39:56.639Z,1011.15
2017-04-16T10:40:56.478Z,1011.16
2017-04-16T10:41:56.461Z,1011.14
2017-04-16T10:42:56.445Z,1011.13
2017-04-16T10:43:56.494Z,1011.1
2017-04-16T10:44:56.421Z,1011.08
2017-04-16T10:45:56.411Z,1011.09
2017-04-16T10:46:56.393Z,1011.15
2017-04-16T10:47:56.386Z,1011.05
2017-04-16T10:48:56.375Z,1011.13
2017-04-16T10:49:56.407Z,1011.06
2017-04-16T10:50:56.340Z,1011.09
2017-04-16T10:51:56.327Z,1011.04
2017-04-16T10:52:56.313Z,1011.05
2017-04-16T10:53:56.298Z,1011.08
2017-04-16T10:54:56.288Z,1011.09
2017-04-16T10:55:56.285Z,1011.04
2017-04-16T10:56:56.256Z,1011.03
2017-04-16T10:57:56.242Z,1011.05
2017-04-16T10:58:56.232Z,1011.02
2017-04-16T10:59:56.266Z,1011.1
2017-04-16T11:00:56.205Z,1011.05
2017-04-16T11:01:56.191Z,1011.03
2017-04-16T11:02:56.183Z,1011.01
2017-04-16T11:03:56.170Z,1010.98
2017-04-16T11:04:56.153Z,1010.98
2017-04-16T11:05:56.147Z,1011.06
2017-04-16T11:06:56.121Z,1010.99
2017-04-16T11:07:56.113Z,1011
2017-04-16T11:08:56.094Z,1011.02
2017-04-16T11:09:56.083Z,1011.03
2017-04-16T11:10:56.067Z,1010.99
2017-04-16T11:11:56.055Z,1011
2017-04-16T11:12:56.043Z,1010.89
2017-04-16T11:13:56.032Z,1010.99
2017-04-16T11:14:56.033Z,1010.95
2017-04-16T11:15:56.012Z,1010.98
2017-04-16T11:16:55.987Z,1010.94
2017-04-16T11:17:55.975Z,1010.92
2017-04-16T11:18:55.963Z,1010.93
2017-04-16T11:19:55.945Z,1010.99
2017-04-16T11:20:55.931Z,1010.94
2017-04-16T11:21:55.922Z,1010.99
2017-04-16T11:22:55.913Z,1010.95
2017-04-16T11:23:55.903Z,1010.89
2017-04-16T11:24:55.894Z,1010.88
2017-04-16T11:25:55.896Z,1010.86
2017-04-16T11:26:55.859Z,1010.84
2017-04-16T11:27:55.851Z,1010.9
2017-04-16T11:28:55.832Z,1010.89
2017-04-16T11:29:55.824Z,1010.89
2017-04-16T11:30:55.801Z,1010.85
2017-04-16T11:31:55.791Z,1010.83
2017-04-16T11:32:55.775Z,1010.83
2017-04-16T11:33:55.763Z,1010.81
2017-04-16T11:34:55.748Z,1010.85
2017-04-16T11:35:55.734Z,1010.88
2017-04-16T11:36:55.717Z,1010.96
2017-04-16T11:37:55.702Z,1010.9
2017-04-16T11:38:55.693Z,1010.94
2017-04-16T11:39:55.673Z,1010.91
2017-04-16T11:40:55.659Z,1010.97
2017-04-16T11:41:55.642Z,1010.99
2017-04-16T11:42:55.629Z,1010.97
2017-04-16T11:43:55.617Z,1010.93
2017-04-16T11:44:55.604Z,1011.02
2017-04-16T11:45:55.582Z,1010.97
2017-04-16T11:46:55.573Z,1010.95
2017-04-16T11:47:55.559Z,1010.96
2017-04-16T11:48:55.544Z,1010.94
2017-04-16T11:49:55.523Z,1010.91
2017-04-16T11:50:55.511Z,1010.89
2017-04-16T11:51:55.496Z,1010.88
2017-04-16T11:52:55.477Z,1010.88
2017-04-16T11:53:55.462Z,1010.89
2017-04-16T11:54:55.447Z,1010.91
2017-04-16T11:55:55.432Z,1010.9
2017-04-16T11:56:55.424Z,1010.87
2017-04-16T11:57:55.408Z,1010.97
2017-04-16T11:58:55.396Z,1010.86
2017-04-16T11:59:55.377Z,1010.93
2017-04-16T12:00:55.364Z,1010.9
2017-04-16T12:01:55.352Z,1010.88
2017-04-16T12:02:55.340Z,1010.87
2017-04-16T12:03:55.322Z,1010.92
2017-04-16T12:04:55.309Z,1010.91
2017-04-16T12:05:55.300Z,1010.87
2017-04-16T12:06:55.280Z,1010.94
2017-04-16T12:07:55.274Z,1010.95